Aérodrome :
LOGIN :

S'inscrire | Disclaimer

   EN    FR    IT 

 










Légende :    VFR   VFR Marginal   IFR   IFR Intensif   IFR Très Intensif
Visi : 
Plafond : 
>= 8 km
>= 3000ft
5 à 8 km
1000 à 3000 ft
1500m à 5 km
500 à 1000 ft
800 à 1500m
200 à 500 ft
< 800m
< 200 ft
Symboles :   Orages  Brouillard  Fortes neiges  Fortes précipitations  Vent > 20 kt
SIGMETs :   Divers  Orages  Givrage  Turbulence  Onde Orograph.  Cendres Volcan.







- Altitude de l'aérodrome : 459 ft
- Code IATA : CER
- Voir les cartes d'approche


LFRC - Cherbourg / Maupertus

DERNIER METAR :
  • 261200Z AUTO 22011KT 4400 BR OVC004 17/17 Q1010 TEMPO RADZ BECMG 23015G25KT

METARs EXPIRÉS :
  • 261130Z AUTO 21014KT 2600 -RADZ BR OVC003 17/17 Q1010 TEMPO 3000 RADZ BECMG 23015G25KT
  • 261100Z AUTO 21013KT 4400 BR OVC003 17/17 Q1010 TEMPO BKN015 BECMG 23015G25KT 5000 RADZ
  • 261030Z AUTO 21015KT 9999 OVC004 17/17 Q1010 TEMPO BKN015 BECMG 23015G25KT RADZ
  • 261000Z AUTO 21011KT 9999 BKN005 BKN020 OVC026 17/17 Q1010 TEMPO 3000 RA BKN015
  • 260930Z AUTO 22011KT 2800 -RADZ BR OVC004 17/17 Q1010 TEMPO BKN015 BECMG 5000 RADZ

TAF TAF LFRC
Valide du 26 à 12h jusqu'au 26 à 21h UTC


261100Z 2612/2621 22013KT 5000 RADZ BKN008
TEMPO 2612/2617 3000 RADZ BKN003
BECMG 2612/2614 23015G25KT
BECMG 2617/2620 9999 NSW BKN016
Pas de NOTAMs connus pour ce terrain.



MET'MAP, la Météo Aéronautique d'un coup d'oeil ! - Copyright ORBIFLY Décembre 2007 - Disclaimer

ORBIFLY MET'MAP TEAM :

Programmation & Développement : Alexandra Zaïnal
Conception & Développement : Baudouin d'Aumeries
Co-Programmation & Développement : Marc-Olivier Méhu
Soutien technique & logistique : Manuel Goepfert

Contact : metmap@orbifly.com




SOURCES & CREDITS :

   NOAA